Wetterstation Rottenburg Seebronn / 442m msl / http://mut-lambrecht.de
LETZTE AKTUALISIERUNG UM: 13:20 DATUM: Dezember 02 2021, time of next update: 13:25
Aktuelles Wettermostly cloudy - light rain showers; Towering cumulus clouds observed Aktuelle Temperatur 4.1°C (39.4°F), Apparent temp 1.4°C
Höchsttemperatur (seit Mitternacht)4.7°C um: 00:01 Tiefsttemperatur (seit Mitternacht)2.6°C um: 09:05
Windgeschwindigkeit (10 Minuten )9.3 kmh (5.0 kts) Windrichtung (Dir) (10 Minuten )NNW (329°)
Windchill Temperatur 1.9°C Windspitzen (letzte Std)18.4 kmh (9.9 kts) um: 12:59
Windspitzen (seit Mitternacht)25.9 kmh (14.0 kts) um: 11:09 Höchstes Windmittel / Minute (seit Mitternacht)14.0 kmh (7.6 kts) um: 11:19
Regenmenge (letzte Std)0.0 mm Regenmenge (seit Mitternacht)0.0 mm (0.00 in.)---
Regenmenge diesen Monat 0.0 mm (0.00 in.) Regenmenge seit Jahresbeginn 1013.4 mm (39.90 in.)
Höchste Regenmenge pro Minute (letzte Std)0.0 mm/min Höchste Regenmenge pro Stunde (letzte 6 Std)0.0 mm/stunde
Regenmenge Gestern 0.0 mm Taupunkt 1.5°C (Wet Bulb :3.1°C )
Luftfeuchtigkeit 83 %, Humidex 2.3°C Aktueller Luftdruck (auf Meereshöhe bezogen)999.8 hPa
Luftdrucktendenz +0.2 hPa (letzte Std) Trend (letzte 1 Std)gleichbleibend
Luftdrucktendenz (letzte 12 Std)+0.2 hPa Luftdrucktendenz (letzte 6 Std)+0.5 hPa


Grafische Darstellung der letzten 24 Stunden.
Grafische Darstellung der letzten 48 Stunden.
Grafische Darstellung der letzten 72 Stunden.
Grafische Darstellung der letzten month.


Weather report/warning/Metars

Stuttgart-Echterdingen, Germany (EDDS) 48-41N 009-13E 391M
Dec 02, 2021 - 06:50 AM EST / 2021.12.02 1150 UTC
Wind: from the WNW (300 degrees) at 12 MPH (10 KT):0
Visibility: greater than 7 mile(s):0
Sky conditions: mostly cloudy
Weather: light rain showers; Towering cumulus clouds observed
Temperature: 37 F (3 C)
Dew Point: 33 F (1 C)
Relative Humidity: 86%
Pressure (altimeter): 29.53 in. Hg (1000 hPa)
ob: EDDS 021150Z 30010KT 9999 -SHRA FEW009 SCT020TCU BKN040 03/01 Q1000 NOSIG
cycle: 12
Karlsruhe, Baden Wurttemberg, Germany (EDSB) 48-46-43N 008-04-47E
Dec 02, 2021 - 06:50 AM EST / 2021.12.02 1150 UTC
Wind: from the WSW (250 degrees) at 7 MPH (6 KT) (direction variable):0
Visibility: 5 mile(s):0
Sky conditions: overcast
Weather: showers in the vicinity
Temperature: 41 F (5 C)
Dew Point: 37 F (3 C)
Relative Humidity: 86%
Pressure (altimeter): 29.59 in. Hg (1002 hPa)
ob: EDSB 021150Z 25006KT 210V290 9000 VCSH SCT014 BKN042 OVC050 05/03 Q1002
cycle: 12
Lahr, CAN-AFB, Germany (EDTL) 48-22-09N 007-49-40E
Dec 02, 2021 - 06:50 AM EST / 2021.12.02 1150 UTC
Wind: Variable at 3 MPH (3 KT):0
Visibility: greater than 7 mile(s):0
Sky conditions: mostly cloudy
Temperature: 39 F (4 C)
Dew Point: 35 F (2 C)
Relative Humidity: 86%
Pressure (altimeter): 29.62 in. Hg (1003 hPa)
ob: EDTL 021150Z VRB03KT 9999 FEW028 BKN045 04/02 Q1003
cycle: 12
Laupheim, Germany (ETHL) 48-13N 009-55E 550M
Dec 02, 2021 - 06:20 AM EST / 2021.12.02 1120 UTC
Wind: from the WSW (250 degrees) at 13 MPH (11 KT):0
Visibility: greater than 7 mile(s):0
Sky conditions: mostly cloudy
Temperature: 41 F (5 C)
Dew Point: 33 F (1 C)
Relative Humidity: 75%
Pressure (altimeter): 29.50 in. Hg (0999 hPa)
ob: ETHL 021120Z 25011KT 9999 FEW012 BKN017 05/01 Q0999 WHT BLU TEMPO WHT
cycle: 11


Klicken Sie hier, um zu den Durchschnitts-, Extrem-, Monats- oder Tageswerten zu gelangen


Die Wetterdaten werden alle 5 Minuten aktualisiert.
Die 3 stündige Echtzeitgrafik wird jede Minute aktualisiert.
Bei der 3 stündige Echtzeitgrafik sind derzeit die Skalenfarben von Winddurchschnitt u. Windböen vertauscht. (Softwarebug)

Drücken Sie gegebenenfalls auf "Aktualisieren" in Ihrem Browser, um die aktuellsten Daten zu erhalten.